Time;durP1;ratioP1;P1;durP2;ratioP2;P2;SDS_P1;SDS_P2;PMS_P1;PMS_P2;Temp;Humidity;BMP_temperature;BMP_pressure;BME280_temperature;BME280_humidity;BME280_pressure;Samples;Min_cycle;Max_cycle;Signal;HPM_P1;HPM_P2
2022/01/17 00:02:18;;;;;;;11.00;1.80;;;6.50;99.90;;;;;;4789160;29;20508;-63
2022/01/17 00:04:45;;;;;;;13.40;1.85;;;6.40;99.90;;;;;;4788546;29;20046;-62
2022/01/17 00:07:11;;;;;;;15.70;1.85;;;6.40;99.90;;;;;;4784673;29;20583;-62
2022/01/17 00:09:36;;;;;;;10.43;1.70;;;6.40;99.90;;;;;;4788514;29;20125;-62
2022/01/17 00:12:02;;;;;;;14.82;1.90;;;6.40;99.90;;;;;;4788184;30;20051;-62
2022/01/17 00:14:34;;;;;;;11.13;2.03;;;6.30;99.90;;;;;;4787502;29;20047;-62
2022/01/17 00:17:38;;;;;;;14.20;1.98;;;6.40;99.90;;;;;;4784539;29;20531;-62
2022/01/17 00:19:56;;;;;;;14.20;2.05;;;6.30;99.90;;;;;;4781734;29;20047;-62
2022/01/17 00:22:23;;;;;;;15.98;2.58;;;6.30;99.90;;;;;;4785678;30;20062;-62
2022/01/17 00:24:54;;;;;;;8.73;1.98;;;6.40;99.90;;;;;;4785720;29;20130;-62
2022/01/17 00:27:19;;;;;;;15.05;2.47;;;6.30;99.90;;;;;;4783643;29;20055;-62
2022/01/17 00:29:45;;;;;;;13.00;1.80;;;6.20;99.90;;;;;;4786931;29;20517;-62
2022/01/17 00:32:12;;;;;;;14.57;2.08;;;6.20;99.90;;;;;;4788382;29;20046;-62
2022/01/17 00:34:38;;;;;;;14.43;2.35;;;6.20;99.90;;;;;;4783215;29;20050;-63
2022/01/17 00:37:04;;;;;;;12.63;2.47;;;6.30;99.90;;;;;;4787587;30;20047;-62
2022/01/17 00:39:29;;;;;;;9.43;1.70;;;6.20;99.90;;;;;;4785607;29;20050;-62
2022/01/17 00:41:55;;;;;;;14.20;2.08;;;6.20;99.90;;;;;;4787703;29;20047;-62
2022/01/17 00:44:22;;;;;;;13.48;2.40;;;6.20;99.90;;;;;;4783646;29;20173;-62
2022/01/17 00:46:49;;;;;;;14.95;2.15;;;6.30;99.90;;;;;;4786253;30;20051;-62
2022/01/17 00:49:15;;;;;;;12.73;2.15;;;6.30;99.90;;;;;;4787883;29;20075;-62
2022/01/17 00:51:41;;;;;;;16.60;2.10;;;6.10;99.90;;;;;;4787679;29;20050;-62
2022/01/17 00:54:07;;;;;;;16.50;1.80;;;6.20;99.90;;;;;;4786762;29;20404;-62
2022/01/17 00:56:32;;;;;;;12.23;1.88;;;6.30;99.90;;;;;;4787808;29;20537;-62
2022/01/17 00:58:58;;;;;;;16.90;2.58;;;6.00;99.90;;;;;;4787662;29;20071;-62
2022/01/17 01:01:24;;;;;;;18.85;3.22;;;6.00;99.90;;;;;;4787894;29;20500;-62
2022/01/17 01:03:49;;;;;;;12.15;2.30;;;6.00;99.90;;;;;;4786208;29;20500;-62
2022/01/17 01:06:16;;;;;;;10.45;1.90;;;6.00;99.90;;;;;;4787023;29;20047;-62
2022/01/17 01:08:42;;;;;;;13.65;2.22;;;6.00;99.90;;;;;;4785629;29;20123;-62
2022/01/17 01:11:08;;;;;;;17.92;2.42;;;6.00;99.90;;;;;;4787562;29;20509;-62
2022/01/17 01:13:34;;;;;;;16.55;2.95;;;6.00;99.90;;;;;;4785994;30;20485;-62
2022/01/17 01:28:57;;;;;;;15.85;2.63;;;6.00;99.90;;;;;;4786721;29;20055;-62
2022/01/17 01:31:37;;;;;;;22.52;2.47;;;5.90;99.90;;;;;;4784450;29;20052;-63
2022/01/17 01:34:05;;;;;;;12.25;2.63;;;5.90;99.90;;;;;;4782683;29;20058;-62
2022/01/17 01:36:33;;;;;;;12.00;2.83;;;5.90;99.90;;;;;;4786239;29;20047;-62
2022/01/17 01:38:58;;;;;;;9.95;1.95;;;5.80;99.90;;;;;;4786544;29;20047;-62
2022/01/17 01:41:24;;;;;;;16.45;2.17;;;5.80;99.90;;;;;;4784380;29;20058;-62
2022/01/17 01:43:50;;;;;;;14.95;2.33;;;5.70;99.90;;;;;;4786574;29;20043;-62
2022/01/17 01:46:19;;;;;;;15.90;2.33;;;5.70;99.90;;;;;;4783986;29;20062;-62
2022/01/17 01:48:45;;;;;;;8.65;2.25;;;6.40;99.90;;;;;;4785544;29;20086;-62
2022/01/17 01:51:10;;;;;;;17.92;2.65;;;5.60;99.90;;;;;;4784091;29;20144;-62
2022/01/17 01:53:37;;;;;;;16.75;2.70;;;5.50;99.90;;;;;;4786541;29;20043;-62
2022/01/17 01:56:03;;;;;;;16.90;2.45;;;5.60;99.90;;;;;;4785453;29;20051;-62
2022/01/17 01:58:29;;;;;;;12.68;2.13;;;5.50;99.90;;;;;;4784133;29;20047;-62
2022/01/17 02:00:55;;;;;;;15.45;2.35;;;5.40;99.90;;;;;;4785261;29;20070;-62
2022/01/17 02:03:22;;;;;;;22.10;2.63;;;5.40;99.90;;;;;;4782343;29;20039;-62
2022/01/17 02:05:47;;;;;;;17.85;3.00;;;5.40;99.90;;;;;;4785610;29;20092;-62
2022/01/17 02:08:14;;;;;;;15.52;2.58;;;5.30;99.90;;;;;;4784554;29;20031;-62
2022/01/17 02:10:40;;;;;;;18.10;2.95;;;5.30;99.90;;;;;;4784533;29;20051;-62
2022/01/17 02:13:06;;;;;;;12.73;2.00;;;5.30;99.90;;;;;;4777983;29;20066;-62
2022/01/17 02:15:32;;;;;;;17.25;3.00;;;5.30;99.90;;;;;;4784411;29;20047;-62
2022/01/17 02:17:58;;;;;;;18.17;2.38;;;5.30;99.90;;;;;;4785415;29;20199;-62
2022/01/17 02:20:40;;;;;;;18.90;2.60;;;5.40;99.90;;;;;;4784639;29;20075;-62
2022/01/17 02:23:07;;;;;;;16.55;2.50;;;5.30;99.90;;;;;;4784119;29;20076;-62
2022/01/17 02:25:33;;;;;;;16.40;2.35;;;5.30;99.90;;;;;;4784637;29;20055;-62
2022/01/17 02:27:59;;;;;;;16.27;2.10;;;5.40;99.90;;;;;;4783736;29;20113;-62
2022/01/17 02:30:27;;;;;;;16.48;2.55;;;5.30;99.90;;;;;;4783945;29;20126;-62
2022/01/17 02:32:53;;;;;;;15.20;2.47;;;5.30;99.90;;;;;;4783591;29;20047;-62
2022/01/17 02:35:22;;;;;;;12.30;2.10;;;5.30;99.90;;;;;;4784281;29;20166;-62
2022/01/17 02:37:48;;;;;;;12.35;2.38;;;5.20;99.90;;;;;;4784319;29;20134;-62
2022/01/17 02:40:16;;;;;;;26.70;3.00;;;5.20;99.90;;;;;;4784823;30;20050;-62
2022/01/17 02:42:43;;;;;;;16.65;2.58;;;5.20;99.90;;;;;;4784017;29;20043;-62
2022/01/17 02:47:55;;;;;;;16.65;2.50;;;5.10;99.90;;;;;;4780572;29;20869;-62
2022/01/17 02:50:20;;;;;;;14.70;2.35;;;5.10;99.90;;;;;;4785128;29;20087;-62
2022/01/17 02:52:46;;;;;;;21.63;2.75;;;5.10;99.90;;;;;;4784780;29;20052;-62
2022/01/17 02:55:12;;;;;;;16.27;2.20;;;5.20;99.90;;;;;;4783534;29;20050;-62
2022/01/17 02:57:38;;;;;;;17.98;2.60;;;5.00;99.90;;;;;;4782513;29;20043;-62
2022/01/17 03:00:09;;;;;;;14.15;2.13;;;5.00;99.90;;;;;;4785136;29;20050;-62
2022/01/17 03:02:34;;;;;;;14.57;2.25;;;5.00;99.90;;;;;;4786046;29;20094;-62
2022/01/17 03:05:00;;;;;;;10.90;1.90;;;4.90;99.90;;;;;;4785365;29;20082;-62
2022/01/17 03:07:26;;;;;;;18.58;2.80;;;4.90;99.90;;;;;;4785447;29;20040;-62
2022/01/17 03:10:02;;;;;;;10.45;2.00;;;4.90;99.90;;;;;;4784609;29;20128;-62
2022/01/17 03:12:31;;;;;;;15.95;2.28;;;4.90;99.90;;;;;;4785678;29;20063;-62
2022/01/17 03:14:57;;;;;;;16.85;2.70;;;4.90;99.90;;;;;;4785558;29;20060;-62
2022/01/17 03:17:23;;;;;;;13.35;2.30;;;4.90;99.90;;;;;;4785974;29;20043;-62
2022/01/17 03:19:49;;;;;;;17.13;2.25;;;4.80;99.90;;;;;;4784360;29;20158;-62
2022/01/17 03:22:15;;;;;;;18.50;2.95;;;4.80;99.90;;;;;;4784082;29;20185;-62
2022/01/17 03:24:40;;;;;;;14.57;2.38;;;4.80;99.90;;;;;;4785468;29;20047;-62
2022/01/17 03:27:06;;;;;;;21.08;3.10;;;4.80;99.90;;;;;;4785891;29;20090;-62
2022/01/17 03:29:32;;;;;;;14.45;1.80;;;4.80;99.90;;;;;;4784840;29;20047;-62
2022/01/17 03:31:58;;;;;;;13.90;2.20;;;4.80;99.90;;;;;;4784405;29;20397;-62
2022/01/17 03:34:23;;;;;;;16.08;2.50;;;4.70;99.90;;;;;;4785817;29;20054;-62
2022/01/17 03:36:49;;;;;;;13.95;2.13;;;4.80;99.90;;;;;;4786948;29;20126;-62
2022/01/17 03:39:15;;;;;;;9.48;2.28;;;4.70;99.90;;;;;;4783243;30;20059;-62
2022/01/17 03:41:41;;;;;;;17.08;2.03;;;4.70;99.90;;;;;;4785744;29;20046;-62
2022/01/17 03:44:07;;;;;;;23.50;2.78;;;4.70;99.90;;;;;;4787357;29;20132;-62
2022/01/17 03:46:33;;;;;;;14.98;2.40;;;4.70;99.90;;;;;;4789668;29;20382;-62
2022/01/17 03:48:59;;;;;;;17.88;2.22;;;4.80;99.90;;;;;;4789736;29;20464;-62
2022/01/17 03:51:25;;;;;;;13.88;2.33;;;4.70;99.90;;;;;;4788995;29;20146;-62
2022/01/17 03:53:51;;;;;;;15.45;2.92;;;4.70;99.90;;;;;;4788415;29;20040;-62
2022/01/17 03:56:18;;;;;;;14.55;2.85;;;4.80;99.90;;;;;;4788802;29;20035;-62
2022/01/17 03:58:45;;;;;;;16.88;2.50;;;4.80;99.90;;;;;;4788758;29;20390;-64
2022/01/17 04:01:11;;;;;;;16.02;2.28;;;4.90;99.90;;;;;;4787182;29;20398;-62
2022/01/17 04:03:38;;;;;;;11.95;2.38;;;4.90;99.90;;;;;;4788638;29;20054;-62
2022/01/17 04:06:04;;;;;;;13.13;1.92;;;4.90;99.90;;;;;;4789144;29;20049;-62
2022/01/17 04:08:30;;;;;;;14.93;2.97;;;5.00;99.90;;;;;;4788918;29;20121;-62
2022/01/17 04:10:56;;;;;;;12.90;2.90;;;5.10;99.90;;;;;;4787868;29;20047;-62
2022/01/17 04:13:23;;;;;;;17.00;2.35;;;5.10;99.90;;;;;;4787504;29;20047;-62
2022/01/17 04:15:49;;;;;;;20.98;2.47;;;5.20;99.90;;;;;;4789264;29;20047;-62
2022/01/17 04:18:15;;;;;;;15.70;2.55;;;5.20;99.90;;;;;;4788552;29;20085;-62
2022/01/17 04:20:41;;;;;;;14.50;2.65;;;5.20;99.90;;;;;;4789807;29;20043;-62
2022/01/17 04:23:10;;;;;;;16.25;2.28;;;5.30;99.90;;;;;;4792943;29;20055;-62
2022/01/17 04:25:39;;;;;;;12.93;2.40;;;5.30;99.90;;;;;;4787341;29;20063;-62
2022/01/17 04:28:06;;;;;;;15.25;2.95;;;5.20;99.90;;;;;;4788392;29;20058;-62
2022/01/17 04:30:32;;;;;;;18.20;2.72;;;5.20;99.90;;;;;;4788657;29;20126;-62
2022/01/17 04:32:59;;;;;;;16.17;2.53;;;5.10;99.90;;;;;;4788764;29;20122;-62
2022/01/17 04:35:26;;;;;;;16.92;2.97;;;5.10;99.90;;;;;;4788796;29;20047;-62
2022/01/17 04:38:10;;;;;;;15.15;2.58;;;5.10;99.90;;;;;;4788601;29;20054;-62
2022/01/17 04:40:38;;;;;;;13.10;2.55;;;5.10;99.90;;;;;;4786339;29;20055;-62
2022/01/17 04:43:16;;;;;;;15.43;2.67;;;5.00;99.90;;;;;;4788288;29;20135;-62
2022/01/17 04:45:42;;;;;;;18.85;3.13;;;5.00;99.90;;;;;;4787680;29;20084;-62
2022/01/17 04:48:08;;;;;;;14.10;2.30;;;5.00;99.90;;;;;;4786910;29;20039;-62
2022/01/17 04:50:34;;;;;;;12.98;2.40;;;5.00;99.90;;;;;;4786730;29;20417;-62
2022/01/17 04:53:01;;;;;;;16.25;3.47;;;5.20;99.90;;;;;;4786999;29;20172;-61
2022/01/17 04:55:28;;;;;;;12.40;2.50;;;4.90;99.90;;;;;;4786901;29;20047;-63
2022/01/17 04:57:56;;;;;;;15.50;3.13;;;4.90;99.90;;;;;;4786619;29;20405;-63
2022/01/17 05:00:24;;;;;;;14.13;2.00;;;5.00;99.90;;;;;;4788165;29;20043;-63
2022/01/17 05:02:50;;;;;;;13.82;2.33;;;5.00;99.90;;;;;;4787341;29;20420;-62
2022/01/17 05:05:25;;;;;;;19.17;2.45;;;5.00;99.90;;;;;;4787821;29;20043;-61
2022/01/17 05:08:00;;;;;;;17.95;2.30;;;5.00;99.90;;;;;;4786378;29;20122;-62
2022/01/17 05:10:29;;;;;;;14.02;1.95;;;5.00;99.90;;;;;;4783474;29;20127;-61
2022/01/17 05:13:31;;;;;;;17.55;2.65;;;5.00;99.90;;;;;;4786680;29;20485;-61
2022/01/17 05:16:17;;;;;;;16.80;2.80;;;5.10;99.90;;;;;;4785389;29;20520;-61
2022/01/17 05:21:27;;;;;;;9.68;2.10;;;5.10;99.90;;;;;;4786673;29;20062;-61
2022/01/17 05:24:16;;;;;;;12.50;2.38;;;5.20;99.90;;;;;;4786645;29;20081;-61
2022/01/17 05:26:44;;;;;;;14.55;2.63;;;5.20;99.90;;;;;;4784000;29;20055;-61
2022/01/17 05:29:42;;;;;;;16.75;2.47;;;5.20;99.90;;;;;;4787247;29;20154;-61
2022/01/17 05:32:39;;;;;;;14.82;2.38;;;5.20;99.90;;;;;;4777917;29;20166;-62
2022/01/17 05:35:19;;;;;;;18.85;2.60;;;5.20;99.90;;;;;;4785728;29;20047;-61
2022/01/17 05:37:47;;;;;;;15.32;2.75;;;5.20;99.90;;;;;;4798916;29;20629;-61
2022/01/17 05:40:38;;;;;;;20.40;2.80;;;5.30;99.90;;;;;;4787220;29;20043;-61
2022/01/17 05:43:17;;;;;;;13.88;2.55;;;5.30;99.90;;;;;;4785996;29;20134;-62
2022/01/17 05:45:51;;;;;;;17.25;3.20;;;5.30;99.90;;;;;;4783627;29;20079;-62
2022/01/17 05:48:17;;;;;;;19.73;3.55;;;5.30;99.90;;;;;;4786806;29;20039;-62
2022/01/17 05:50:44;;;;;;;12.75;2.70;;;5.40;99.90;;;;;;4784320;29;20051;-62
2022/01/17 05:54:03;;;;;;;19.77;3.10;;;5.40;99.90;;;;;;4783301;29;20501;-63
2022/01/17 05:56:40;;;;;;;14.25;2.63;;;5.40;99.90;;;;;;4783320;29;20118;-63
2022/01/17 05:59:49;;;;;;;15.18;3.45;;;5.40;99.90;;;;;;4782641;29;20116;-63
2022/01/17 06:02:20;;;;;;;14.52;2.95;;;5.40;99.90;;;;;;4783787;29;20047;-63
2022/01/17 06:05:00;;;;;;;14.00;3.05;;;5.40;99.90;;;;;;4782089;29;20055;-63
2022/01/17 06:07:47;;;;;;;14.20;3.42;;;5.40;99.90;;;;;;4751989;30;20112;-63
2022/01/17 06:10:48;;;;;;;18.52;3.58;;;5.40;99.90;;;;;;4783915;29;20051;-63
2022/01/17 06:17:07;;;;;;;15.10;4.18;;;5.40;99.90;;;;;;4780722;29;20066;-63
2022/01/17 06:19:41;;;;;;;15.93;4.68;;;5.40;99.90;;;;;;4785361;29;20047;-63
2022/01/17 06:22:22;;;;;;;17.02;4.30;;;5.40;99.90;;;;;;4786168;29;20461;-63
2022/01/17 06:24:48;;;;;;;15.35;4.30;;;5.40;99.90;;;;;;4785594;29;20039;-63
2022/01/17 06:27:40;;;;;;;15.73;5.10;;;5.50;99.90;;;;;;4784789;29;20131;-64
2022/01/17 06:30:27;;;;;;;17.27;5.13;;;5.50;99.90;;;;;;4786037;29;20039;-64
2022/01/17 06:33:25;;;;;;;17.70;6.05;;;5.60;99.90;;;;;;4785408;29;20418;-63
2022/01/17 06:36:17;;;;;;;21.50;6.25;;;5.60;99.90;;;;;;4777983;29;20138;-63
2022/01/17 06:39:03;;;;;;;21.45;6.45;;;5.70;99.90;;;;;;4784223;29;20102;-63
2022/01/17 06:41:34;;;;;;;21.38;6.50;;;5.60;99.90;;;;;;4784642;29;20051;-63
2022/01/17 06:47:28;;;;;;;21.08;7.05;;;5.70;99.90;;;;;;4769373;29;20055;-63
2022/01/17 06:50:37;;;;;;;26.40;6.95;;;5.80;99.90;;;;;;4782994;29;20055;-63
2022/01/17 06:53:09;;;;;;;19.27;6.68;;;5.80;99.90;;;;;;4795645;29;20060;-63
2022/01/17 06:58:45;;;;;;;17.60;7.45;;;5.80;99.90;;;;;;4784328;29;20055;-63
2022/01/17 07:01:20;;;;;;;19.33;6.82;;;5.80;99.90;;;;;;4781297;29;20723;-63
2022/01/17 07:03:50;;;;;;;22.42;6.85;;;5.80;99.90;;;;;;4785770;29;20070;-63
2022/01/17 07:06:30;;;;;;;22.25;7.28;;;5.80;99.90;;;;;;4785088;29;20063;-63
2022/01/17 07:09:14;;;;;;;;;;;5.80;99.90;;;;;;4766568;30;20074;-63
2022/01/17 07:15:38;;;;;;;23.65;6.47;;;5.80;99.90;;;;;;4763605;30;20056;-63
2022/01/17 07:18:22;;;;;;;28.48;6.68;;;5.90;99.90;;;;;;4763535;30;21328;-63
2022/01/17 07:20:51;;;;;;;25.20;7.40;;;5.90;99.90;;;;;;4769336;30;20120;-63
2022/01/17 07:23:34;;;;;;;25.65;6.97;;;5.90;99.90;;;;;;4767209;30;20132;-63
2022/01/17 07:30:05;;;;;;;23.02;6.10;;;5.90;99.90;;;;;;4771701;29;20083;-63
2022/01/17 07:33:16;;;;;;;20.55;5.85;;;5.90;99.90;;;;;;4768638;30;20059;-63
2022/01/17 07:39:32;;;;;;;21.40;6.65;;;5.90;99.90;;;;;;4739080;30;20051;-63
2022/01/17 07:42:41;;;;;;;24.02;5.88;;;5.90;99.90;;;;;;4785798;29;20047;-63
2022/01/17 07:46:02;;;;;;;20.27;5.60;;;5.90;99.90;;;;;;4785879;29;20176;-63
2022/01/17 07:49:09;;;;;;;24.98;5.35;;;5.90;99.90;;;;;;4781650;29;20421;-63
2022/01/17 07:51:49;;;;;;;22.25;5.20;;;5.90;99.90;;;;;;4788230;29;20066;-63
2022/01/17 07:54:21;;;;;;;22.85;6.10;;;5.90;99.90;;;;;;4785606;29;20128;-63
2022/01/17 07:57:23;;;;;;;25.67;4.90;;;6.00;99.90;;;;;;4785726;29;20074;-63
2022/01/17 08:00:25;;;;;;;18.27;4.82;;;6.00;99.90;;;;;;4783920;29;20527;-63
2022/01/17 08:03:06;;;;;;;16.80;4.28;;;6.00;99.90;;;;;;4787801;29;20447;-63
2022/01/17 08:05:38;;;;;;;20.45;4.32;;;6.00;99.90;;;;;;4783290;29;20047;-63
2022/01/17 08:08:09;;;;;;;20.70;4.93;;;6.00;99.90;;;;;;4784889;29;20051;-63
2022/01/17 08:10:44;;;;;;;19.63;4.18;;;6.00;99.90;;;;;;4784710;29;20047;-63
2022/01/17 08:13:19;;;;;;;26.27;4.72;;;6.00;99.90;;;;;;4781698;29;20051;-63
2022/01/17 08:16:07;;;;;;;23.50;3.83;;;6.10;99.90;;;;;;4787539;30;20146;-63
2022/01/17 08:19:13;;;;;;;26.17;4.32;;;6.00;99.90;;;;;;4783197;29;20087;-63
2022/01/17 08:22:02;;;;;;;18.83;3.20;;;6.10;99.90;;;;;;4781718;29;20051;-63
2022/01/17 08:25:17;;;;;;;18.52;3.90;;;6.10;99.90;;;;;;4785772;29;20066;-63
2022/01/17 08:27:59;;;;;;;17.10;3.40;;;6.10;99.90;;;;;;4781311;29;20110;-63
2022/01/17 08:30:37;;;;;;;35.63;5.07;;;6.10;99.90;;;;;;4783967;29;20530;-63
2022/01/17 08:33:41;;;;;;;22.38;4.30;;;6.20;99.90;;;;;;4783510;29;20055;-63
2022/01/17 08:36:53;;;;;;;27.23;4.32;;;6.20;99.90;;;;;;4727987;30;20098;-63
2022/01/17 08:39:45;;;;;;;25.10;3.95;;;6.30;99.90;;;;;;4703894;30;20053;-63
2022/01/17 08:42:43;;;;;;;25.70;3.70;;;6.30;99.90;;;;;;4730343;30;20049;-63
2022/01/17 08:45:14;;;;;;;25.30;4.25;;;6.30;99.90;;;;;;4731717;30;20120;-63
2022/01/17 08:48:06;;;;;;;24.88;3.88;;;6.40;99.90;;;;;;4785043;29;20063;-63
2022/01/17 08:50:46;;;;;;;25.05;4.70;;;6.50;99.90;;;;;;4782446;29;20055;-63
2022/01/17 08:53:51;;;;;;;19.55;3.45;;;6.50;99.90;;;;;;4785654;29;20055;-63
2022/01/17 08:56:58;;;;;;;23.17;3.83;;;6.50;99.90;;;;;;4783866;29;20075;-63
2022/01/17 09:03:20;;;;;;;22.92;3.55;;;6.60;99.90;;;;;;4784250;29;19941;-63
2022/01/17 09:06:17;;;;;;;27.90;3.90;;;6.70;99.90;;;;;;4801831;29;20043;-62
2022/01/17 09:09:31;;;;;;;23.58;4.38;;;6.80;99.90;;;;;;4775767;29;20124;-63
2022/01/17 09:12:25;;;;;;;27.75;4.18;;;6.80;99.90;;;;;;4781357;29;20132;-63
2022/01/17 09:18:16;;;;;;;28.08;4.85;;;6.90;99.90;;;;;;4734589;30;20150;-64
2022/01/17 09:21:20;;;;;;;24.35;3.95;;;6.90;99.90;;;;;;4735251;30;20099;-64
2022/01/17 09:30:17;;;;;;;31.02;4.22;;;7.10;99.90;;;;;;4717012;30;20562;-64
2022/01/17 09:36:28;;;;;;;26.88;4.60;;;7.10;99.90;;;;;;4727883;30;20060;-64
2022/01/17 09:39:10;;;;;;;31.20;5.07;;;7.20;99.90;;;;;;4749645;30;20060;-64
2022/01/17 09:41:59;;;;;;;25.52;4.63;;;7.20;99.90;;;;;;4766357;30;20051;-64
2022/01/17 09:45:18;;;;;;;22.70;4.35;;;7.30;99.90;;;;;;4766868;30;20539;-64
2022/01/17 09:51:40;;;;;;;33.17;4.78;;;7.40;99.90;;;;;;4714711;30;20255;-64
2022/01/17 09:54:40;;;;;;;30.55;4.47;;;7.40;99.90;;;;;;4752567;30;20153;-64
2022/01/17 09:57:16;;;;;;;20.13;3.95;;;7.50;99.90;;;;;;4766518;30;20056;-64
2022/01/17 09:59:52;;;;;;;27.52;4.50;;;7.50;99.90;;;;;;4764288;30;20148;-64
2022/01/17 10:02:47;;;;;;;24.08;4.45;;;7.60;99.90;;;;;;4751790;30;20055;-64
2022/01/17 10:15:25;;;;;;;24.55;4.65;;;7.80;99.90;;;;;;4780409;29;20047;-64
2022/01/17 10:21:41;;;;;;;25.70;4.38;;;7.80;99.90;;;;;;4779765;29;20100;-64
2022/01/17 10:31:20;;;;;;;30.20;4.22;;;8.00;99.90;;;;;;4783911;29;20103;-64
2022/01/17 10:40:58;;;;;;;25.65;4.95;;;8.20;99.90;;;;;;4784034;29;20082;-63
2022/01/17 10:43:55;;;;;;;31.75;4.30;;;8.20;99.90;;;;;;4784420;29;20063;-63
2022/01/17 10:53:43;;;;;;;34.97;4.43;;;8.40;99.90;;;;;;4757559;29;20055;-63
2022/01/17 10:56:30;;;;;;;23.67;4.13;;;8.40;99.90;;;;;;4788747;29;20087;-64
2022/01/17 10:59:26;;;;;;;34.85;5.25;;;8.40;99.90;;;;;;4788765;29;20083;-64
2022/01/17 11:02:31;;;;;;;32.47;5.30;;;8.50;99.90;;;;;;4773617;29;20052;-64
2022/01/17 11:05:27;;;;;;;33.17;4.90;;;8.50;99.90;;;;;;4771694;29;20059;-64
2022/01/17 11:08:26;;;;;;;32.35;4.90;;;8.60;99.90;;;;;;4787262;29;20043;-64
2022/01/17 11:11:15;;;;;;;30.23;5.00;;;8.60;99.90;;;;;;4767701;29;20066;-64
2022/01/17 11:13:58;;;;;;;23.98;4.53;;;8.60;99.90;;;;;;4789505;29;20196;-64
2022/01/17 11:16:43;;;;;;;32.80;5.40;;;8.70;99.90;;;;;;4789537;29;20051;-64
2022/01/17 11:20:03;;;;;;;38.85;6.78;;;8.80;99.90;;;;;;4786432;29;20114;-64
2022/01/17 11:22:36;;;;;;;33.85;5.13;;;8.90;99.90;;;;;;4789510;29;20089;-64
2022/01/17 11:25:48;;;;;;;31.23;5.38;;;9.00;99.90;;;;;;4785197;29;20046;-64
2022/01/17 11:28:23;;;;;;;35.28;5.63;;;9.10;99.90;;;;;;4723745;30;20056;-64
2022/01/17 11:31:22;;;;;;;28.00;4.78;;;9.00;99.90;;;;;;4787480;29;20058;-64
2022/01/17 11:37:21;;;;;;;28.42;5.45;;;9.10;99.90;;;;;;4779658;29;20134;-64
2022/01/17 11:39:59;;;;;;;27.40;5.03;;;9.10;99.90;;;;;;4780730;29;20157;-64
2022/01/17 11:43:10;;;;;;;30.80;5.88;;;9.10;99.90;;;;;;4786934;29;20523;-64
2022/01/17 11:46:08;;;;;;;32.83;5.25;;;9.10;99.90;;;;;;4786062;29;20055;-64
2022/01/17 11:48:49;;;;;;;29.80;5.65;;;9.10;99.90;;;;;;4762925;29;20127;-64
2022/01/17 11:54:43;;;;;;;33.95;5.70;;;9.00;99.90;;;;;;4782497;29;20059;-64
2022/01/17 11:58:07;;;;;;;38.78;6.68;;;9.10;99.90;;;;;;4758396;29;20152;-64
2022/01/17 12:01:02;;;;;;;32.28;5.75;;;9.10;99.90;;;;;;4777406;29;20066;-64
2022/01/17 12:04:07;;;;;;;44.75;7.53;;;9.20;99.90;;;;;;4787157;29;20043;-64
2022/01/17 12:07:04;;;;;;;38.13;6.90;;;9.20;99.90;;;;;;4799704;29;20116;-64
2022/01/17 12:12:37;;;;;;;28.58;6.90;;;9.30;99.90;;;;;;4781178;29;20055;-64
2022/01/17 12:15:22;;;;;;;38.65;7.05;;;9.40;99.90;;;;;;4787743;29;20056;-64
2022/01/17 12:22:00;;;;;;;41.92;6.03;;;9.50;99.90;;;;;;4733249;30;20052;-64
2022/01/17 12:24:55;;;;;;;39.75;6.20;;;9.50;99.90;;;;;;4727337;30;20670;-64
2022/01/17 12:31:05;;;;;;;49.42;7.10;;;9.50;99.90;;;;;;4729983;30;20048;-64
2022/01/17 12:33:47;;;;;;;40.90;6.85;;;9.60;99.90;;;;;;4794609;29;20089;-64
2022/01/17 12:36:52;;;;;;;40.03;5.78;;;9.60;99.90;;;;;;4782133;29;20409;-64
2022/01/17 12:39:29;;;;;;;29.27;5.93;;;9.60;99.90;;;;;;4738124;30;20114;-63
2022/01/17 12:42:27;;;;;;;35.47;6.80;;;9.70;99.90;;;;;;4767441;29;20067;-63
2022/01/17 12:45:23;;;;;;;31.52;6.40;;;9.70;99.90;;;;;;4782434;29;20043;-64
2022/01/17 12:48:48;;;;;;;33.85;6.28;;;9.70;99.90;;;;;;4758061;29;20069;-63
2022/01/17 12:51:20;;;;;;;38.67;7.20;;;9.70;99.90;;;;;;4784781;29;20058;-63
2022/01/17 12:54:35;;;;;;;40.70;6.40;;;9.70;99.90;;;;;;4782703;29;20976;-63
2022/01/17 12:58:03;;;;;;;41.83;6.75;;;9.70;99.90;;;;;;4753721;29;20363;-63
2022/01/17 13:03:43;;;;;;;39.85;6.60;;;9.70;99.90;;;;;;4772730;29;20662;-64
2022/01/17 13:06:47;;;;;;;39.55;8.65;;;9.70;99.90;;;;;;4783831;29;20705;-64
2022/01/17 13:09:49;;;;;;;42.42;8.38;;;9.60;99.90;;;;;;4781280;29;20124;-64
2022/01/17 13:12:46;;;;;;;41.30;8.35;;;9.60;99.90;;;;;;4777473;29;20057;-64
2022/01/17 13:15:38;;;;;;;46.90;8.02;;;9.50;99.90;;;;;;4780338;29;20059;-64
2022/01/17 13:22:25;;;;;;;49.35;8.52;;;9.40;99.90;;;;;;4774068;29;20051;-64
2022/01/17 13:25:35;;;;;;;45.15;7.25;;;9.40;99.90;;;;;;4780913;29;20059;-64
2022/01/17 13:28:18;;;;;;;37.60;7.57;;;9.40;99.90;;;;;;4779922;29;20047;-64
2022/01/17 13:30:50;;;;;;;43.35;7.82;;;9.40;99.90;;;;;;4782206;29;20063;-64
2022/01/17 13:33:19;;;;;;;34.35;7.10;;;9.40;99.90;;;;;;4780239;29;20059;-64
2022/01/17 13:36:04;;;;;;;43.83;7.68;;;9.40;99.90;;;;;;4778714;29;20716;-64
2022/01/17 13:39:15;;;;;;;45.55;7.25;;;9.40;99.90;;;;;;4780875;29;20077;-64
2022/01/17 13:42:23;;;;;;;45.72;7.32;;;9.40;99.90;;;;;;4798872;29;20400;-64
2022/01/17 13:51:56;;;;;;;41.30;7.22;;;9.40;99.90;;;;;;4713842;30;20057;-64
2022/01/17 13:54:54;;;;;;;38.40;6.25;;;9.30;99.90;;;;;;4709203;30;20053;-64
2022/01/17 14:00:58;;;;;;;44.45;7.47;;;9.30;99.90;;;;;;4726242;30;20087;-64
2022/01/17 14:03:40;;;;;;;47.17;8.25;;;9.30;99.90;;;;;;4710439;30;20529;-64
2022/01/17 14:09:32;;;;;;;37.15;6.78;;;9.30;99.90;;;;;;4718299;30;20044;-65
2022/01/17 14:12:19;;;;;;;51.65;7.07;;;9.30;99.90;;;;;;4711789;30;20079;-63
2022/01/17 14:21:14;;;;;;;45.67;6.38;;;9.20;99.90;;;;;;4734717;29;20051;-63
2022/01/17 14:24:13;;;;;;;42.22;7.28;;;9.20;99.90;;;;;;4779868;29;20100;-63
2022/01/17 14:30:14;;;;;;;43.72;6.50;;;9.20;99.90;;;;;;4780842;29;20055;-63
2022/01/17 14:36:22;;;;;;;33.67;6.50;;;9.10;99.90;;;;;;4765105;29;20719;-63
2022/01/17 14:42:36;;;;;;;44.60;6.57;;;9.20;99.90;;;;;;4775301;29;20090;-63
2022/01/17 14:45:25;;;;;;;37.10;6.35;;;9.20;99.90;;;;;;4781695;29;20145;-63
2022/01/17 14:48:26;;;;;;;38.47;6.95;;;9.20;99.90;;;;;;4779800;29;20055;-65
2022/01/17 14:51:32;;;;;;;35.70;6.57;;;9.20;99.90;;;;;;4787557;29;20071;-65
2022/01/17 14:54:13;;;;;;;35.05;6.38;;;9.20;99.90;;;;;;4794997;29;20052;-66
2022/01/17 15:00:27;;;;;;;44.13;6.18;;;9.10;99.90;;;;;;4781177;29;20092;-66
2022/01/17 15:03:45;;;;;;;38.58;6.75;;;9.10;99.90;;;;;;4777445;29;20074;-66
2022/01/17 15:06:29;;;;;;;40.40;6.10;;;9.10;99.90;;;;;;4782732;29;20066;-65
2022/01/17 15:09:35;;;;;;;41.75;6.53;;;9.10;99.90;;;;;;4777296;29;20127;-65
2022/01/17 15:12:40;;;;;;;40.42;6.47;;;9.00;99.90;;;;;;4742906;29;20082;-64
2022/01/17 15:15:59;;;;;;;31.70;6.72;;;9.00;99.90;;;;;;4766075;29;20051;-65
2022/01/17 15:18:48;;;;;;;45.13;7.13;;;8.90;99.90;;;;;;4777282;29;20070;-65
2022/01/17 15:21:32;;;;;;;32.33;5.55;;;9.00;99.90;;;;;;4775591;29;20057;-64
2022/01/17 15:24:16;;;;;;;41.45;6.53;;;9.00;99.90;;;;;;4784574;29;20058;-65
2022/01/17 15:27:06;;;;;;;35.35;6.85;;;9.00;99.90;;;;;;4782587;29;20235;-65
2022/01/17 15:29:58;;;;;;;37.55;6.20;;;8.90;99.90;;;;;;4782721;29;20138;-64
2022/01/17 15:33:05;;;;;;;27.27;5.47;;;8.90;99.90;;;;;;4780566;29;20725;-65
2022/01/17 15:39:27;;;;;;;38.75;6.25;;;8.90;99.90;;;;;;4775489;29;21780;-64
2022/01/17 15:42:16;;;;;;;35.95;6.57;;;8.80;99.90;;;;;;4752580;29;20398;-64
2022/01/17 15:45:13;;;;;;;40.38;6.43;;;8.80;99.90;;;;;;4786883;29;20111;-65
2022/01/17 15:48:11;;;;;;;40.33;6.15;;;8.80;99.90;;;;;;4785698;29;20047;-64
2022/01/17 15:50:59;;;;;;;33.10;5.32;;;8.80;99.90;;;;;;4781396;29;20036;-65
2022/01/17 16:00:37;;;;;;;31.67;5.50;;;8.70;99.90;;;;;;4781678;29;20405;-64
2022/01/17 16:06:38;;;;;;;36.53;6.20;;;8.70;99.90;;;;;;4784233;29;19994;-64
2022/01/17 16:09:48;;;;;;;32.90;5.38;;;8.70;99.90;;;;;;4804654;29;20092;-64
2022/01/17 16:12:57;;;;;;;31.85;6.07;;;8.60;99.90;;;;;;4758473;29;20225;-64
2022/01/17 16:15:33;;;;;;;37.35;6.35;;;8.60;99.90;;;;;;4783437;29;20078;-64
2022/01/17 16:21:39;;;;;;;28.88;4.72;;;8.50;99.90;;;;;;4777098;29;20345;-64
2022/01/17 16:24:33;;;;;;;37.53;5.60;;;8.40;99.90;;;;;;4780679;29;20051;-64
2022/01/17 16:27:25;;;;;;;35.15;6.38;;;8.30;99.90;;;;;;4765427;30;20149;-64
2022/01/17 16:30:34;;;;;;;40.38;6.25;;;8.40;99.90;;;;;;4762953;30;20052;-64
2022/01/17 16:36:56;;;;;;;30.85;5.53;;;8.30;99.90;;;;;;4759596;30;20055;-65
2022/01/17 16:39:37;;;;;;;28.13;5.05;;;8.30;99.90;;;;;;4752337;30;20047;-64
2022/01/17 16:42:30;;;;;;;26.73;5.78;;;8.30;99.90;;;;;;4768168;30;20535;-64
2022/01/17 16:45:25;;;;;;;30.05;5.97;;;8.30;99.90;;;;;;4783449;29;20161;-64
2022/01/17 16:52:04;;;;;;;42.28;7.57;;;8.20;99.90;;;;;;4711438;30;20056;-64
2022/01/17 16:54:53;;;;;;;34.25;5.57;;;8.20;99.90;;;;;;4712178;30;20507;-64
2022/01/17 17:01:23;;;;;;;29.75;5.20;;;8.30;99.90;;;;;;4769672;29;20078;-65